Time;durP1;ratioP1;P1;durP2;ratioP2;P2;SDS_P1;SDS_P2;PMS_P1;PMS_P2;Temp;Humidity;BMP_temperature;BMP_pressure;BME280_temperature;BME280_humidity;BME280_pressure;Samples;Min_cycle;Max_cycle;Signal;HPM_P1;HPM_P2
2021/01/13 00:02:22;;;;;;;0.10;0.10;;;1.50;99.90;;;;;;5019730;28;20552;-70
2021/01/13 00:04:47;;;;;;;2.42;0.65;;;1.60;99.90;;;;;;5020662;28;20025;-70
2021/01/13 00:07:14;;;;;;;0.87;0.87;;;1.70;99.90;;;;;;5020549;28;20221;-70
2021/01/13 00:09:41;;;;;;;0.22;0.22;;;1.90;99.90;;;;;;5020233;28;20038;-70
2021/01/13 00:12:07;;;;;;;3.10;1.40;;;2.00;99.90;;;;;;5018227;28;20064;-70
2021/01/13 00:14:33;;;;;;;0.10;0.10;;;2.10;99.90;;;;;;5017725;28;20057;-69
2021/01/13 00:16:58;;;;;;;0.30;0.30;;;2.10;99.90;;;;;;5017345;28;20373;-69
2021/01/13 00:19:24;;;;;;;0.10;0.10;;;2.10;99.90;;;;;;5012958;28;20032;-71
2021/01/13 00:21:51;;;;;;;0.10;0.10;;;2.10;99.90;;;;;;5010329;28;20037;-70
2021/01/13 00:24:17;;;;;;;0.10;0.10;;;2.10;99.90;;;;;;5013143;28;20033;-70
2021/01/13 00:26:44;;;;;;;0.03;0.03;;;2.20;99.90;;;;;;5011579;28;20045;-69
2021/01/13 00:29:11;;;;;;;1.05;0.40;;;2.20;99.90;;;;;;5012112;28;20033;-70
2021/01/13 00:31:37;;;;;;;1.08;0.40;;;2.20;99.90;;;;;;5000925;28;20034;-70
2021/01/13 00:34:04;;;;;;;0.33;0.33;;;2.30;99.90;;;;;;5012843;28;20045;-69
2021/01/13 00:36:31;;;;;;;0.13;0.13;;;2.20;99.90;;;;;;5012232;28;20034;-69
2021/01/13 00:38:56;;;;;;;0.10;0.10;;;2.00;99.90;;;;;;5002844;28;20141;-71
2021/01/13 00:41:23;;;;;;;0.30;0.30;;;2.00;99.90;;;;;;5013476;28;20448;-69
2021/01/13 00:43:50;;;;;;;1.10;1.03;;;1.90;99.90;;;;;;5011370;28;20026;-70
2021/01/13 00:46:16;;;;;;;0.30;0.30;;;1.90;99.90;;;;;;5013567;28;20030;-69
2021/01/13 00:48:42;;;;;;;2.00;0.80;;;1.80;99.90;;;;;;5015995;28;20041;-70
2021/01/13 00:51:07;;;;;;;0.10;0.10;;;1.90;99.90;;;;;;5016190;28;20022;-70
2021/01/13 00:53:33;;;;;;;6.43;1.50;;;2.10;99.90;;;;;;5017208;28;20332;-69
2021/01/13 00:55:59;;;;;;;0.10;0.10;;;2.10;99.90;;;;;;5018378;28;20306;-69
2021/01/13 00:58:24;;;;;;;0.10;0.10;;;2.20;99.90;;;;;;5018165;28;20041;-69
2021/01/13 01:00:51;;;;;;;0.90;0.37;;;2.20;99.90;;;;;;5017962;28;20022;-69
2021/01/13 01:03:20;;;;;;;0.17;0.17;;;2.20;99.90;;;;;;5016807;28;20030;-70
2021/01/13 01:05:48;;;;;;;0.17;0.17;;;2.20;99.90;;;;;;5016919;28;20037;-69
2021/01/13 01:08:14;;;;;;;0.40;0.40;;;2.10;99.90;;;;;;5014897;28;20030;-69
2021/01/13 01:10:41;;;;;;;0.10;0.10;;;2.00;99.90;;;;;;5014932;28;20526;-70
2021/01/13 01:13:07;;;;;;;1.17;0.85;;;1.90;99.90;;;;;;5015873;28;20415;-70
2021/01/13 01:15:34;;;;;;;0.10;0.10;;;1.80;99.90;;;;;;5014935;28;20058;-70
2021/01/13 01:17:59;;;;;;;;;;;1.70;99.90;;;;;;5019758;28;20036;-69
2021/01/13 01:20:25;;;;;;;1.43;0.50;;;1.60;99.90;;;;;;5019246;28;20301;-69
2021/01/13 01:22:55;;;;;;;2.47;1.80;;;1.60;99.90;;;;;;5018418;28;20428;-70
2021/01/13 01:25:21;;;;;;;0.35;0.35;;;1.50;99.90;;;;;;5015281;28;20076;-69
2021/01/13 01:27:53;;;;;;;0.10;0.10;;;1.50;99.90;;;;;;5009873;28;20029;-69
2021/01/13 01:30:19;;;;;;;0.47;0.47;;;1.50;99.90;;;;;;5010768;28;20381;-70
2021/01/13 01:32:45;;;;;;;4.55;2.33;;;1.50;99.90;;;;;;5013620;28;20026;-70
2021/01/13 01:35:12;;;;;;;0.10;0.10;;;1.50;99.90;;;;;;5012866;28;20034;-70
2021/01/13 01:37:39;;;;;;;0.55;0.55;;;1.50;99.90;;;;;;5015686;28;20091;-69
2021/01/13 01:40:07;;;;;;;0.50;0.50;;;1.60;99.90;;;;;;5019902;28;20421;-70
2021/01/13 01:42:33;;;;;;;8.32;0.93;;;1.50;99.90;;;;;;5007079;28;20095;-69
2021/01/13 01:44:59;;;;;;;0.03;0.03;;;1.40;99.90;;;;;;5014765;28;20041;-70
2021/01/13 01:48:07;;;;;;;28.47;0.53;;;1.30;99.90;;;;;;5017679;28;20041;-69
2021/01/13 01:50:38;;;;;;;0.10;0.10;;;1.20;99.90;;;;;;5021491;28;20044;-70
2021/01/13 01:53:18;;;;;;;0.10;0.10;;;1.20;99.90;;;;;;5021483;28;20037;-70
2021/01/13 01:55:51;;;;;;;1.23;1.15;;;1.10;99.90;;;;;;5020241;28;20109;-70
2021/01/13 01:58:28;;;;;;;0.20;0.20;;;1.10;99.90;;;;;;5015718;28;20109;-69
2021/01/13 02:00:56;;;;;;;0.10;0.10;;;1.10;99.90;;;;;;5011763;28;20393;-69
2021/01/13 02:03:26;;;;;;;0.10;0.10;;;1.20;99.90;;;;;;5014013;28;20321;-70
2021/01/13 02:06:03;;;;;;;0.63;0.35;;;1.20;99.90;;;;;;5013362;28;20030;-70
2021/01/13 02:08:39;;;;;;;0.75;0.45;;;1.20;99.90;;;;;;5016423;28;20034;-70
2021/01/13 02:11:10;;;;;;;0.40;0.40;;;1.20;99.90;;;;;;5011339;28;20025;-70
2021/01/13 02:13:36;;;;;;;0.10;0.10;;;1.20;99.90;;;;;;5014130;28;20435;-70
2021/01/13 02:16:03;;;;;;;0.10;0.10;;;1.20;99.90;;;;;;5008342;28;20026;-69
2021/01/13 02:18:34;;;;;;;0.10;0.10;;;1.20;99.90;;;;;;5013038;28;20050;-70
2021/01/13 02:21:02;;;;;;;0.65;0.65;;;1.20;99.90;;;;;;5013827;28;20079;-70
2021/01/13 02:23:35;;;;;;;1.80;0.73;;;1.10;99.90;;;;;;5010191;28;20420;-70
2021/01/13 02:26:07;;;;;;;2.67;0.80;;;1.10;99.90;;;;;;5011969;28;20068;-70
2021/01/13 02:28:41;;;;;;;1.17;0.95;;;1.10;99.90;;;;;;5011626;28;20377;-70
2021/01/13 02:31:30;;;;;;;1.45;0.90;;;1.10;99.90;;;;;;5012755;28;20034;-70
2021/01/13 02:34:05;;;;;;;0.10;0.10;;;1.10;99.90;;;;;;5016092;28;20098;-70
2021/01/13 02:36:33;;;;;;;0.10;0.10;;;1.10;99.90;;;;;;5013882;28;20057;-69
2021/01/13 02:39:03;;;;;;;1.08;0.63;;;1.20;99.90;;;;;;5013039;28;20046;-70
2021/01/13 02:41:35;;;;;;;5.45;1.33;;;1.20;99.90;;;;;;5001727;28;20080;-70
2021/01/13 02:44:09;;;;;;;0.47;0.45;;;1.30;99.90;;;;;;5013477;28;20030;-70
2021/01/13 02:47:05;;;;;;;2.28;0.73;;;1.40;99.90;;;;;;5011502;28;20072;-70
2021/01/13 02:49:32;;;;;;;3.78;1.00;;;1.70;99.90;;;;;;5004090;28;20417;-70
2021/01/13 02:51:58;;;;;;;;;;;2.00;99.90;;;;;;5011807;28;20033;-70
2021/01/13 02:54:27;;;;;;;5.57;0.63;;;2.00;99.90;;;;;;5012251;28;19913;-70
2021/01/13 02:57:03;;;;;;;0.10;0.10;;;2.10;99.90;;;;;;5018484;28;20025;-70
2021/01/13 02:59:29;;;;;;;0.10;0.10;;;2.00;99.90;;;;;;5013933;28;20041;-69
2021/01/13 03:01:55;;;;;;;0.35;0.35;;;1.90;99.90;;;;;;5012044;28;20376;-69
2021/01/13 03:04:20;;;;;;;0.30;0.30;;;1.90;99.90;;;;;;5012617;28;20065;-69
2021/01/13 03:06:47;;;;;;;0.03;0.03;;;1.90;99.90;;;;;;5012699;28;20026;-71
2021/01/13 03:09:13;;;;;;;0.17;0.17;;;2.00;99.90;;;;;;5012516;28;20034;-69
2021/01/13 03:11:40;;;;;;;0.10;0.10;;;2.00;99.90;;;;;;5025279;28;20053;-69
2021/01/13 03:14:25;;;;;;;0.75;0.57;;;2.20;99.90;;;;;;5017570;28;20029;-68
2021/01/13 03:17:08;;;;;;;0.03;0.03;;;2.50;99.90;;;;;;5018843;28;20036;-68
2021/01/13 03:19:46;;;;;;;0.47;0.43;;;2.70;99.90;;;;;;5015414;28;20360;-69
2021/01/13 03:22:26;;;;;;;19.50;0.85;;;2.80;99.90;;;;;;5015806;28;20033;-69
2021/01/13 03:25:04;;;;;;;0.00;0.00;;;2.90;99.90;;;;;;5017988;28;20034;-68
2021/01/13 03:27:36;;;;;;;0.45;0.45;;;2.90;99.90;;;;;;5014324;28;20116;-69
2021/01/13 03:30:05;;;;;;;0.00;0.00;;;3.00;99.90;;;;;;5011031;28;20036;-68
2021/01/13 03:32:54;;;;;;;0.10;0.10;;;3.00;99.90;;;;;;5012579;28;20064;-69
2021/01/13 03:35:26;;;;;;;0.10;0.10;;;3.10;99.90;;;;;;5010991;28;20045;-69
2021/01/13 03:37:56;;;;;;;0.30;0.20;;;3.20;99.90;;;;;;5011808;28;20038;-70
2021/01/13 03:40:35;;;;;;;0.45;0.45;;;3.20;99.90;;;;;;5012400;28;20113;-69
2021/01/13 03:43:10;;;;;;;0.00;0.00;;;3.20;99.90;;;;;;5010975;28;20034;-69
2021/01/13 03:45:38;;;;;;;0.63;0.63;;;3.20;99.90;;;;;;5014511;28;20029;-69
2021/01/13 03:48:42;;;;;;;0.00;0.00;;;3.20;99.90;;;;;;5014080;28;20439;-69
2021/01/13 03:51:24;;;;;;;0.70;0.70;;;3.30;99.90;;;;;;5010841;28;20026;-70
2021/01/13 03:53:51;;;;;;;0.00;0.00;;;3.20;99.90;;;;;;5013742;28;20033;-69
2021/01/13 03:56:25;;;;;;;9.02;2.10;;;3.20;99.90;;;;;;5014160;28;20036;-71
2021/01/13 03:58:52;;;;;;;1.40;1.17;;;3.20;99.90;;;;;;5017087;28;20030;-69
2021/01/13 04:01:24;;;;;;;0.10;0.10;;;3.20;99.90;;;;;;5017693;28;20017;-69
2021/01/13 04:03:56;;;;;;;0.10;0.10;;;3.20;99.90;;;;;;5014441;28;20022;-70
2021/01/13 04:06:22;;;;;;;0.10;0.10;;;3.20;99.90;;;;;;5015787;28;20425;-70
2021/01/13 04:08:49;;;;;;;0.52;0.52;;;3.10;99.90;;;;;;5016438;28;20352;-70
2021/01/13 04:11:17;;;;;;;0.33;0.33;;;3.10;99.90;;;;;;5016125;28;20053;-70
2021/01/13 04:13:50;;;;;;;0.38;0.38;;;3.00;99.90;;;;;;5016992;28;20629;-69
2021/01/13 04:16:18;;;;;;;0.10;0.10;;;3.00;99.90;;;;;;5015973;28;20029;-70
2021/01/13 04:18:49;;;;;;;1.92;1.30;;;3.00;99.90;;;;;;5033131;28;20030;-71
2021/01/13 04:21:17;;;;;;;1.35;1.08;;;2.90;99.90;;;;;;5016903;28;20381;-70
2021/01/13 04:23:43;;;;;;;1.55;0.68;;;3.00;99.90;;;;;;5022298;28;20033;-70
2021/01/13 04:26:10;;;;;;;0.05;0.05;;;3.00;99.90;;;;;;5016564;28;20026;-71
2021/01/13 04:28:36;;;;;;;;;;;3.00;99.90;;;;;;5021010;28;20118;-69
2021/01/13 04:31:03;;;;;;;0.10;0.10;;;3.10;99.90;;;;;;5020840;28;20016;-69
2021/01/13 04:33:29;;;;;;;0.57;0.57;;;3.10;99.90;;;;;;5021717;28;20080;-69
2021/01/13 04:35:55;;;;;;;0.10;0.10;;;3.10;99.90;;;;;;5017912;28;20041;-69
2021/01/13 04:38:32;;;;;;;2.20;0.68;;;3.10;99.90;;;;;;5021812;28;20072;-70
2021/01/13 04:41:17;;;;;;;0.45;0.45;;;3.10;99.90;;;;;;5031686;28;20305;-69
2021/01/13 04:43:57;;;;;;;3.53;0.77;;;3.20;99.90;;;;;;5018822;28;20049;-69
2021/01/13 04:46:28;;;;;;;2.63;0.52;;;3.20;99.90;;;;;;5018123;28;20105;-70
2021/01/13 04:49:16;;;;;;;0.30;0.30;;;3.30;99.90;;;;;;5023798;28;20141;-69
2021/01/13 04:51:44;;;;;;;0.25;0.25;;;3.30;99.90;;;;;;5013096;28;20048;-70
2021/01/13 04:54:14;;;;;;;3.00;0.80;;;3.40;99.90;;;;;;5022394;28;20409;-69
2021/01/13 04:56:55;;;;;;;0.70;0.60;;;3.40;99.90;;;;;;5013423;28;20037;-69
2021/01/13 04:59:38;;;;;;;0.52;0.43;;;3.40;99.90;;;;;;5019624;28;20037;-69
2021/01/13 05:02:17;;;;;;;0.10;0.10;;;3.40;99.90;;;;;;5014561;28;20340;-70
2021/01/13 05:05:00;;;;;;;1.80;0.40;;;3.40;99.90;;;;;;5013495;28;20057;-69
2021/01/13 05:07:33;;;;;;;0.30;0.30;;;3.40;99.90;;;;;;5014435;28;20033;-69
2021/01/13 05:10:04;;;;;;;0.10;0.10;;;3.40;99.90;;;;;;5014451;28;20376;-69
2021/01/13 05:12:53;;;;;;;1.02;1.02;;;3.30;99.90;;;;;;5016403;28;20087;-69
2021/01/13 05:15:27;;;;;;;0.47;0.47;;;3.30;99.90;;;;;;5015634;28;20364;-69
2021/01/13 05:18:06;;;;;;;1.55;0.70;;;3.40;99.90;;;;;;5012493;28;20044;-69
2021/01/13 05:20:42;;;;;;;0.03;0.03;;;3.30;99.90;;;;;;5015811;28;20030;-69
2021/01/13 05:23:10;;;;;;;0.20;0.20;;;3.30;99.90;;;;;;5016770;28;20149;-69
2021/01/13 05:25:48;;;;;;;1.38;0.40;;;3.30;99.90;;;;;;5015066;28;20324;-69
2021/01/13 05:28:15;;;;;;;0.13;0.13;;;3.30;99.90;;;;;;5015443;28;20165;-67
2021/01/13 05:30:42;;;;;;;;;;;3.30;99.90;;;;;;5015816;28;20482;-69
2021/01/13 05:33:10;;;;;;;2.55;0.60;;;3.30;99.90;;;;;;5016223;28;19988;-69
2021/01/13 05:35:42;;;;;;;0.93;0.85;;;3.40;99.90;;;;;;5013869;28;20022;-69
2021/01/13 05:38:12;;;;;;;0.63;0.57;;;3.30;99.90;;;;;;5011953;28;20042;-69
2021/01/13 05:40:52;;;;;;;1.45;0.38;;;3.30;99.90;;;;;;5015623;28;20041;-69
2021/01/13 05:43:20;;;;;;;3.40;0.17;;;3.30;99.90;;;;;;5030433;28;20055;-69
2021/01/13 05:45:45;;;;;;;;;;;3.30;99.90;;;;;;5014709;28;20030;-69
2021/01/13 05:48:12;;;;;;;1.10;1.10;;;3.30;99.90;;;;;;5016693;28;19929;-69
2021/01/13 05:50:38;;;;;;;1.80;1.27;;;3.20;99.90;;;;;;5015765;28;20282;-69
2021/01/13 05:53:05;;;;;;;0.10;0.10;;;3.20;99.90;;;;;;5011608;28;20026;-70
2021/01/13 05:55:31;;;;;;;4.00;1.67;;;3.20;99.90;;;;;;5015458;28;20057;-69
2021/01/13 05:57:59;;;;;;;0.10;0.10;;;3.20;99.90;;;;;;5004543;28;20026;-69
2021/01/13 06:00:27;;;;;;;0.10;0.10;;;3.20;99.90;;;;;;5029473;28;20325;-70
2021/01/13 06:02:57;;;;;;;2.83;0.40;;;3.20;99.90;;;;;;5005063;28;20053;-68
2021/01/13 06:05:24;;;;;;;0.15;0.15;;;3.20;99.90;;;;;;5013629;28;20152;-69
2021/01/13 06:07:52;;;;;;;10.18;0.43;;;3.30;99.90;;;;;;5015602;28;20030;-69
2021/01/13 06:10:19;;;;;;;0.15;0.15;;;3.30;99.90;;;;;;5011480;28;20156;-69
2021/01/13 06:12:51;;;;;;;0.38;0.22;;;3.30;99.90;;;;;;5014369;28;20037;-68
2021/01/13 06:15:24;;;;;;;0.30;0.30;;;3.30;99.90;;;;;;5025342;28;20030;-69
2021/01/13 06:17:51;;;;;;;0.43;0.43;;;3.20;99.90;;;;;;5011919;28;20022;-69
2021/01/13 06:20:21;;;;;;;0.10;0.10;;;3.20;99.90;;;;;;5009128;28;20022;-69
2021/01/13 06:22:49;;;;;;;1.75;0.57;;;3.20;99.90;;;;;;5013885;28;20421;-70
2021/01/13 06:25:28;;;;;;;21.42;2.03;;;3.30;99.90;;;;;;5012150;28;20435;-69
2021/01/13 06:28:18;;;;;;;9.65;0.35;;;3.20;99.90;;;;;;5013310;28;20585;-70
2021/01/13 06:30:45;;;;;;;0.57;0.40;;;3.20;99.90;;;;;;5022901;28;20038;-69
2021/01/13 06:33:21;;;;;;;4.63;0.77;;;3.20;99.90;;;;;;5011179;28;20329;-69
2021/01/13 06:36:02;;;;;;;;;;;3.20;99.90;;;;;;5011970;28;20026;-69
2021/01/13 06:38:46;;;;;;;0.43;0.43;;;3.20;99.90;;;;;;5012903;28;20355;-69
2021/01/13 06:41:12;;;;;;;0.35;0.20;;;3.20;99.90;;;;;;5012359;28;20075;-69
2021/01/13 06:43:39;;;;;;;5.78;1.25;;;3.10;99.90;;;;;;5011338;28;20096;-69
2021/01/13 06:46:19;;;;;;;0.20;0.20;;;3.10;99.90;;;;;;5013005;28;20129;-70
2021/01/13 06:48:45;;;;;;;0.47;0.40;;;3.10;99.90;;;;;;5012791;28;20034;-70
2021/01/13 06:51:15;;;;;;;0.30;0.30;;;3.10;99.90;;;;;;5010439;28;20033;-69
2021/01/13 06:53:46;;;;;;;0.47;0.47;;;3.00;99.90;;;;;;5011400;28;20022;-70
2021/01/13 06:56:14;;;;;;;0.10;0.10;;;3.00;99.90;;;;;;5019476;28;20027;-70
2021/01/13 06:59:00;;;;;;;0.20;0.20;;;3.00;99.90;;;;;;5012523;28;20099;-69
2021/01/13 07:01:26;;;;;;;0.20;0.20;;;2.90;99.90;;;;;;5009481;28;20166;-69
2021/01/13 07:03:59;;;;;;;0.33;0.33;;;2.90;99.90;;;;;;5000534;28;20385;-69
2021/01/13 07:06:25;;;;;;;0.10;0.10;;;2.90;99.90;;;;;;5011216;28;20033;-70
2021/01/13 07:08:52;;;;;;;1.90;1.50;;;2.90;99.90;;;;;;5014435;28;20038;-69
2021/01/13 07:11:18;;;;;;;0.10;0.10;;;2.90;99.90;;;;;;5004668;28;20041;-70
2021/01/13 07:13:50;;;;;;;0.32;0.20;;;2.90;99.90;;;;;;5012207;28;20033;-69
2021/01/13 07:16:21;;;;;;;12.85;1.50;;;2.90;99.90;;;;;;5013903;28;20112;-69
2021/01/13 07:18:47;;;;;;;0.20;0.20;;;2.90;99.90;;;;;;5019074;28;20040;-69
2021/01/13 07:21:12;;;;;;;0.08;0.08;;;2.80;99.90;;;;;;5009623;28;20030;-69
2021/01/13 07:23:46;;;;;;;1.20;0.73;;;2.80;99.90;;;;;;5013414;28;20101;-69
2021/01/13 07:26:13;;;;;;;0.65;0.65;;;2.90;99.90;;;;;;5013567;28;20025;-69
2021/01/13 07:28:39;;;;;;;0.17;0.17;;;2.90;99.90;;;;;;5014155;28;20092;-69
2021/01/13 07:31:07;;;;;;;0.10;0.10;;;2.90;99.90;;;;;;5011245;28;20039;-69
2021/01/13 07:33:40;;;;;;;0.10;0.10;;;2.90;99.90;;;;;;5010194;28;20041;-69
2021/01/13 07:36:10;;;;;;;0.65;0.40;;;2.90;99.90;;;;;;5014701;28;20109;-69
2021/01/13 07:38:42;;;;;;;0.10;0.10;;;3.00;99.90;;;;;;5016444;28;20129;-69
2021/01/13 07:41:09;;;;;;;0.75;0.40;;;3.00;99.90;;;;;;5016659;28;20046;-69
2021/01/13 07:43:54;;;;;;;;;;;3.00;99.90;;;;;;5016243;28;20373;-69
2021/01/13 07:46:33;;;;;;;0.57;0.57;;;3.00;99.90;;;;;;5015202;28;20277;-70
2021/01/13 07:49:12;;;;;;;2.38;1.10;;;3.10;99.90;;;;;;5016644;28;20056;-69
2021/01/13 07:51:49;;;;;;;0.20;0.20;;;3.10;99.90;;;;;;5015841;28;20042;-68
2021/01/13 07:54:30;;;;;;;0.45;0.30;;;3.10;99.90;;;;;;5014642;28;20714;-70
2021/01/13 07:56:57;;;;;;;0.15;0.15;;;3.10;99.90;;;;;;5015005;28;20720;-69
2021/01/13 07:59:34;;;;;;;0.10;0.10;;;3.10;99.90;;;;;;5009462;28;20050;-69
2021/01/13 08:02:21;;;;;;;0.10;0.10;;;3.10;99.90;;;;;;5010406;28;20060;-69
2021/01/13 08:04:55;;;;;;;0.10;0.10;;;3.10;99.90;;;;;;5011941;28;20113;-69
2021/01/13 08:07:41;;;;;;;0.45;0.28;;;3.10;99.90;;;;;;5010016;28;20773;-69
2021/01/13 08:10:08;;;;;;;0.20;0.20;;;3.20;99.90;;;;;;5007634;28;20029;-69
2021/01/13 08:12:42;;;;;;;;;;;3.20;99.90;;;;;;5019388;28;20109;-69
2021/01/13 08:15:40;;;;;;;0.30;0.30;;;3.20;99.90;;;;;;5019173;28;19909;-70
2021/01/13 08:18:49;;;;;;;1.05;0.77;;;3.30;99.90;;;;;;5017631;28;20049;-69
2021/01/13 08:21:26;;;;;;;2.33;0.75;;;3.30;99.90;;;;;;5006955;28;20032;-69
2021/01/13 08:23:59;;;;;;;0.20;0.20;;;3.30;99.90;;;;;;5015370;28;20112;-69
2021/01/13 08:26:26;;;;;;;1.35;0.75;;;3.30;99.90;;;;;;5019790;28;20502;-69
2021/01/13 08:28:55;;;;;;;2.17;0.45;;;3.40;99.90;;;;;;5018738;28;20092;-69
2021/01/13 08:31:24;;;;;;;0.57;0.57;;;3.40;99.90;;;;;;5018904;28;20109;-70
2021/01/13 08:34:08;;;;;;;1.38;0.57;;;3.30;99.90;;;;;;5016412;28;20439;-69
2021/01/13 08:36:39;;;;;;;0.10;0.10;;;3.30;99.90;;;;;;5031201;28;20054;-69
2021/01/13 08:39:06;;;;;;;0.22;0.22;;;3.20;99.90;;;;;;5011289;28;20054;-70
2021/01/13 08:41:32;;;;;;;;;;;3.30;99.90;;;;;;5009539;28;20531;-69
2021/01/13 08:44:03;;;;;;;0.40;0.40;;;3.40;99.90;;;;;;5011247;28;19913;-69
2021/01/13 08:46:38;;;;;;;1.30;0.47;;;3.50;99.90;;;;;;5011268;28;20049;-69
2021/01/13 08:49:06;;;;;;;1.55;1.23;;;3.60;99.90;;;;;;5012603;28;20033;-70
2021/01/13 08:51:32;;;;;;;0.77;0.77;;;3.60;99.90;;;;;;5010273;28;20068;-69
2021/01/13 08:54:25;;;;;;;3.97;0.85;;;3.70;99.90;;;;;;5026476;28;20033;-70
2021/01/13 08:56:57;;;;;;;0.38;0.38;;;3.80;99.90;;;;;;5010374;28;20041;-70
2021/01/13 08:59:38;;;;;;;0.13;0.13;;;3.80;99.90;;;;;;5026364;28;20095;-70
2021/01/13 09:02:07;;;;;;;0.20;0.20;;;3.90;99.90;;;;;;5011102;28;20033;-69
2021/01/13 09:04:52;;;;;;;0.15;0.15;;;3.90;99.90;;;;;;5013701;28;20052;-70
2021/01/13 09:07:29;;;;;;;3.30;1.02;;;4.00;99.90;;;;;;5010269;28;20033;-69
2021/01/13 09:10:05;;;;;;;0.20;0.20;;;4.10;99.90;;;;;;5016300;28;20306;-70
2021/01/13 09:12:45;;;;;;;0.35;0.35;;;4.20;99.90;;;;;;5016605;28;20084;-70
2021/01/13 09:15:13;;;;;;;0.10;0.10;;;4.30;99.90;;;;;;5017743;28;20372;-70
2021/01/13 09:17:49;;;;;;;0.30;0.30;;;4.30;99.90;;;;;;5031026;28;20026;-69
2021/01/13 09:20:30;;;;;;;5.10;2.43;;;4.40;99.90;;;;;;5007382;28;20124;-69
2021/01/13 09:23:04;;;;;;;0.00;0.00;;;4.40;99.90;;;;;;5017681;28;20259;-70
2021/01/13 09:25:32;;;;;;;0.90;0.90;;;4.40;99.90;;;;;;5019499;28;20072;-70
2021/01/13 09:28:00;;;;;;;0.10;0.10;;;4.50;99.90;;;;;;5006309;28;20107;-69
2021/01/13 09:30:30;;;;;;;0.22;0.22;;;4.50;99.90;;;;;;5014189;28;20025;-70
2021/01/13 09:32:58;;;;;;;0.20;0.20;;;4.50;99.90;;;;;;5014592;28;20021;-70
2021/01/13 09:35:30;;;;;;;4.78;1.17;;;4.40;99.90;;;;;;5017768;28;20313;-69
2021/01/13 09:38:08;;;;;;;0.35;0.35;;;4.40;99.90;;;;;;5022304;28;20506;-70
2021/01/13 09:40:54;;;;;;;0.55;0.55;;;4.40;99.90;;;;;;5016375;28;20369;-70
2021/01/13 09:43:29;;;;;;;0.38;0.38;;;4.40;99.90;;;;;;5020226;28;20030;-69
2021/01/13 09:45:58;;;;;;;0.35;0.25;;;4.50;99.90;;;;;;5015830;28;20026;-69
2021/01/13 09:48:25;;;;;;;0.73;0.73;;;4.50;99.90;;;;;;5014549;28;20032;-69
2021/01/13 09:51:00;;;;;;;;;;;4.50;99.90;;;;;;5013881;28;20413;-69
2021/01/13 09:53:49;;;;;;;0.47;0.47;;;4.60;99.90;;;;;;5004590;28;20331;-69
2021/01/13 09:56:15;;;;;;;0.10;0.10;;;4.60;99.90;;;;;;5010703;28;20065;-69
2021/01/13 09:58:44;;;;;;;0.43;0.43;;;4.70;99.90;;;;;;5011683;28;20030;-69
2021/01/13 10:01:16;;;;;;;1.23;1.05;;;4.70;99.90;;;;;;5010813;28;20037;-69
2021/01/13 10:03:44;;;;;;;0.38;0.38;;;4.80;99.90;;;;;;5031938;28;20325;-68
2021/01/13 10:06:43;;;;;;;4.47;0.28;;;4.90;99.90;;;;;;5017378;28;20048;-69
2021/01/13 10:09:13;;;;;;;0.52;0.52;;;5.00;99.90;;;;;;5014975;28;20033;-69
2021/01/13 10:11:40;;;;;;;1.08;0.73;;;5.00;99.90;;;;;;5019669;28;20048;-69
2021/01/13 10:14:08;;;;;;;0.30;0.30;;;5.00;99.90;;;;;;5018312;28;20025;-69
2021/01/13 10:16:40;;;;;;;0.50;0.50;;;4.90;99.90;;;;;;5017411;28;20478;-69
2021/01/13 10:19:06;;;;;;;1.65;0.40;;;5.00;99.90;;;;;;5016570;28;20409;-69
2021/01/13 10:21:42;;;;;;;2.85;1.70;;;5.00;99.90;;;;;;5012898;28;20095;-69
2021/01/13 10:24:13;;;;;;;1.80;1.40;;;5.00;99.90;;;;;;5016777;28;20153;-69
2021/01/13 10:26:49;;;;;;;1.60;1.50;;;5.00;99.90;;;;;;5006438;28;20045;-70
2021/01/13 10:29:21;;;;;;;0.45;0.22;;;5.10;99.90;;;;;;5014575;28;20036;-69
2021/01/13 10:31:48;;;;;;;0.32;0.32;;;5.10;99.90;;;;;;5002986;28;20029;-70
2021/01/13 10:34:14;;;;;;;0.35;0.35;;;5.20;99.90;;;;;;5018420;28;20068;-70
2021/01/13 10:36:44;;;;;;;1.85;0.88;;;5.20;99.90;;;;;;5018783;28;20041;-69
2021/01/13 10:39:13;;;;;;;0.20;0.20;;;5.20;99.90;;;;;;5016839;28;20053;-69
2021/01/13 10:41:47;;;;;;;0.25;0.25;;;5.20;99.90;;;;;;5017951;28;20032;-69
2021/01/13 10:44:21;;;;;;;0.63;0.32;;;5.20;99.90;;;;;;5015182;28;20022;-69
2021/01/13 10:47:03;;;;;;;0.40;0.40;;;5.20;99.90;;;;;;5013487;28;20025;-69
2021/01/13 10:49:32;;;;;;;0.20;0.20;;;5.10;99.90;;;;;;5021644;28;20469;-70
2021/01/13 10:52:20;;;;;;;0.30;0.30;;;5.10;99.90;;;;;;5025417;28;20077;-68
2021/01/13 10:54:48;;;;;;;1.38;1.05;;;5.10;99.90;;;;;;5018733;28;20345;-67
2021/01/13 10:57:15;;;;;;;0.25;0.25;;;5.10;99.90;;;;;;5012150;28;20025;-70
2021/01/13 10:59:42;;;;;;;0.30;0.30;;;5.10;99.90;;;;;;5011858;28;20038;-68
2021/01/13 11:02:09;;;;;;;;;;;5.10;99.90;;;;;;5012947;28;20088;-70
2021/01/13 11:04:36;;;;;;;;;;;5.10;99.90;;;;;;5013449;28;19914;-69
2021/01/13 11:07:19;;;;;;;0.32;0.32;;;5.10;99.90;;;;;;5012572;28;19913;-70
2021/01/13 11:09:47;;;;;;;0.10;0.10;;;5.20;99.90;;;;;;5012385;28;20037;-69
2021/01/13 11:12:22;;;;;;;5.68;1.38;;;5.20;99.90;;;;;;5016808;28;20022;-69
2021/01/13 11:14:49;;;;;;;0.55;0.55;;;5.30;99.90;;;;;;5011342;28;20109;-69
2021/01/13 11:17:15;;;;;;;2.00;0.65;;;5.40;99.90;;;;;;5012988;28;20436;-68
2021/01/13 11:19:46;;;;;;;0.43;0.43;;;5.40;99.90;;;;;;5017332;28;20037;-68
2021/01/13 11:22:13;;;;;;;0.98;0.85;;;5.40;99.90;;;;;;5012938;28;20030;-69
2021/01/13 11:24:44;;;;;;;;;;;5.40;99.90;;;;;;5011237;28;20033;-69
2021/01/13 11:27:13;;;;;;;2.47;0.93;;;5.50;99.90;;;;;;5013073;28;19909;-69
2021/01/13 11:29:41;;;;;;;0.30;0.30;;;5.40;99.90;;;;;;5014140;28;20034;-69
2021/01/13 11:32:11;;;;;;;0.20;0.20;;;5.40;99.90;;;;;;5000730;28;20034;-68
2021/01/13 11:34:37;;;;;;;1.17;0.90;;;5.50;99.90;;;;;;5011987;28;20057;-70
2021/01/13 11:37:17;;;;;;;3.65;1.27;;;5.40;99.90;;;;;;5010024;28;20018;-68
2021/01/13 11:39:59;;;;;;;0.68;0.68;;;5.50;99.90;;;;;;5004779;28;20065;-68
2021/01/13 11:42:32;;;;;;;0.05;0.05;;;5.40;99.90;;;;;;5011319;28;20440;-69
2021/01/13 11:45:12;;;;;;;0.80;0.70;;;5.40;99.90;;;;;;5028501;28;20380;-69
2021/01/13 11:47:42;;;;;;;0.30;0.20;;;5.40;99.90;;;;;;5011385;28;20483;-69
2021/01/13 11:50:18;;;;;;;0.38;0.38;;;5.40;99.90;;;;;;5011054;28;20026;-69
2021/01/13 11:52:47;;;;;;;3.25;1.20;;;5.40;99.90;;;;;;5012603;28;20037;-69
2021/01/13 11:55:13;;;;;;;0.20;0.20;;;5.50;99.90;;;;;;5009999;28;20030;-69
2021/01/13 11:57:44;;;;;;;0.17;0.17;;;5.60;99.90;;;;;;5009407;28;20032;-69
2021/01/13 12:00:18;;;;;;;2.08;0.30;;;5.80;99.90;;;;;;5006500;28;20018;-69
2021/01/13 12:02:58;;;;;;;13.18;1.23;;;5.90;99.90;;;;;;5009647;28;20037;-70
2021/01/13 12:05:37;;;;;;;0.43;0.43;;;5.90;99.90;;;;;;5016237;28;20030;-69
2021/01/13 12:08:11;;;;;;;0.30;0.30;;;6.00;99.90;;;;;;5017769;28;20025;-69
2021/01/13 12:10:42;;;;;;;0.22;0.22;;;6.20;99.90;;;;;;5017522;28;20026;-69
2021/01/13 12:13:11;;;;;;;0.77;0.77;;;6.20;99.90;;;;;;5017984;28;20036;-69
2021/01/13 12:15:57;;;;;;;0.60;0.60;;;6.30;99.90;;;;;;5010052;28;20270;-69
2021/01/13 12:18:49;;;;;;;2.27;1.60;;;6.30;99.90;;;;;;5009501;28;20332;-69
2021/01/13 12:21:17;;;;;;;4.57;1.58;;;6.30;99.90;;;;;;5013535;28;20302;-69
2021/01/13 12:23:47;;;;;;;0.65;0.65;;;6.20;99.90;;;;;;5014217;28;20443;-68
2021/01/13 12:26:33;;;;;;;0.30;0.30;;;6.20;99.90;;;;;;5026409;28;20494;-69
2021/01/13 12:29:02;;;;;;;0.10;0.10;;;6.20;99.90;;;;;;5012687;28;20076;-69
2021/01/13 12:31:35;;;;;;;2.25;0.43;;;6.10;99.90;;;;;;5013452;28;20029;-69
2021/01/13 12:34:01;;;;;;;0.20;0.20;;;6.10;99.90;;;;;;5018291;28;20064;-69
2021/01/13 12:36:37;;;;;;;2.22;0.80;;;6.10;99.90;;;;;;5022168;28;20353;-70
2021/01/13 12:39:04;;;;;;;1.48;0.70;;;6.00;99.90;;;;;;5019665;28;20336;-70
2021/01/13 12:41:31;;;;;;;;;;;6.00;99.90;;;;;;5003715;28;20034;-69
2021/01/13 12:44:03;;;;;;;3.22;1.10;;;6.00;99.90;;;;;;5030297;28;19937;-70
2021/01/13 12:46:30;;;;;;;0.90;0.63;;;6.00;99.90;;;;;;5006985;28;20096;-69
2021/01/13 12:48:58;;;;;;;1.02;0.63;;;6.00;99.90;;;;;;5016562;28;20057;-69
2021/01/13 12:51:24;;;;;;;0.22;0.22;;;5.90;99.90;;;;;;5019909;28;20036;-69
2021/01/13 12:53:53;;;;;;;0.10;0.10;;;5.80;99.90;;;;;;5017603;28;20026;-69
2021/01/13 12:56:23;;;;;;;0.73;0.63;;;5.70;99.90;;;;;;5019016;28;20421;-69
2021/01/13 12:58:48;;;;;;;0.20;0.20;;;5.70;99.90;;;;;;5018355;28;20531;-69
2021/01/13 13:01:14;;;;;;;0.52;0.52;;;5.70;99.90;;;;;;5019380;28;20037;-70
2021/01/13 13:03:40;;;;;;;1.15;0.90;;;5.90;99.90;;;;;;5010684;28;20386;-69
2021/01/13 13:06:08;;;;;;;4.07;1.00;;;6.00;99.90;;;;;;5014022;28;20379;-69
2021/01/13 13:08:36;;;;;;;7.93;0.52;;;6.00;99.90;;;;;;5014352;28;20018;-70
2021/01/13 13:11:08;;;;;;;6.32;1.27;;;5.90;99.90;;;;;;5021880;28;20061;-69
2021/01/13 13:13:34;;;;;;;2.38;1.23;;;6.00;99.90;;;;;;5017129;28;20038;-69
2021/01/13 13:16:00;;;;;;;1.70;0.67;;;6.10;99.90;;;;;;5013993;28;20025;-69
2021/01/13 13:18:26;;;;;;;0.40;0.40;;;6.20;99.90;;;;;;5012322;28;20083;-70
2021/01/13 13:20:51;;;;;;;0.13;0.13;;;6.10;99.90;;;;;;5014013;28;20593;-70
2021/01/13 13:23:18;;;;;;;1.30;1.20;;;6.00;99.90;;;;;;5015000;28;20125;-70
2021/01/13 13:25:44;;;;;;;0.73;0.70;;;6.10;99.90;;;;;;5014834;28;20029;-69